Het weer levert geen direct gevaar op.    Er zijn geen waarschuwingen afgegeven.


Onweer radar Meer informatie blitzortung!


Regen radar Meer informatie rain snow radar


Bezoek onze andere website:

Template documentation
and downloads

And another site



Select another period ( hide this area )

Eenheden Periode Custom range Directly to
Metrisch Engels Beide
Dagelijkse Wekelijkse Maandelijkse Jaarlijkse
use both date-selectors for a custom range
previous Dag
With this date

WeatherUnderground graphs for this period ( click here )


Dagelijkse Samenvatting Zaterdag 19 januari 2019
Tijd Temp. ( °C ) Dew pt. ( °C ) Wind ( km/h ) van Windvlaag ( km/h ) Luchtdruk ( hPa ) Humid.( % ) Rainrate ( cm )
Hoog-0,5 -1,2 18,5 Oosten ( 147/720 ) 8,5 1018,2 95 -
Gemiddeld-1,1 -1,8 6,3 Oosten #32/114 2,9 1017,0 95 -
Laag-2,2 -2,8 -   0,0 1016,0 92 -
Dagelijkse Tabular details for Zaterdag 19 januari 2019
Tijd Temp. ( °C ) Dew pt. ( °C ) Wind ( km/h ) van Windvlaag ( km/h ) Luchtdruk ( hPa ) Humid.( % ) Rainrate ( cm )
00:04 -1,0 -2,1 7,4 ZO 4,3 1018,2 92 -
00:09 -1,1 -2,2 5,6 WZW 1,6 1018,1 92 -
00:14 -1,1 -2,2 5,6 ZO 2,4 1018,2 92 -
00:19 -1,1 -2,2 5,6 ZZW 1,6 1018,1 92 -
00:24 -1,0 -2,1 5,6 Zuiden 2,9 1018,1 92 -
00:29 -1,0 -2,0 7,4 ZO 1,4 1018,1 93 -
00:34 -1,0 -2,0 11,3 ZZO 4,2 1018,1 93 -
00:39 -1,0 -2,0 7,4 ZO 4,0 1018,0 93 -
00:44 -1,0 -2,0 9,3 Zuiden 5,3 1018,0 93 -
00:49 -1,0 -2,0 11,1 ZO 4,3 1018,0 93 -
00:54 -1,0 -2,0 7,4 ZZO 4,5 1018,0 93 -
00:59 -1,0 -1,8 6,4 Zuiden 2,4 1018,0 94 -
01:04 -0,9 -1,9 11,1 ZO 6,3 1017,9 93 -
01:09 -0,9 -1,8 11,1 ZZO 3,7 1017,9 94 -
01:14 -0,9 -1,7 11,1 ZW 3,4 1017,9 94 -
01:19 -0,8 -1,7 5,6 ZW 2,3 1017,8 94 -
01:24 -0,8 -1,7 7,4 Oosten 8,5 1017,8 94 -
01:29 -0,8 -1,7 9,3 ZZW 3,4 1017,8 94 -
01:34 -0,8 -1,6 11,1 ZO 6,0 1017,8 94 -
01:39 -0,8 -1,6 11,1 ZW 6,4 1017,7 94 -
01:44 -0,7 -1,6 5,6 ZZW 2,4 1017,7 94 -
01:49 -0,7 -1,6 5,6 ZZW 4,3 1017,7 94 -
01:54 -0,7 -1,6 7,4 ZZW 3,2 1017,7 94 -
01:59 -0,7 -1,6 11,1 Zuiden 6,6 1017,7 94 -
02:04 -0,7 -1,6 5,6 ZZO 2,4 1017,7 94 -
02:09 -0,7 -1,6 5,6 ZZO 2,7 1017,6 94 -
02:14 -0,7 -1,5 5,6 Zuiden 5,1 1017,6 94 -
02:19 -0,7 -1,5 5,6 Zuiden 6,3 1017,6 94 -
02:24 -0,7 -1,5 13,0 Zuiden 5,3 1017,6 94 -
02:29 -0,7 -1,5 5,6 ZW 3,5 1017,5 94 -
02:34 -0,7 -1,5 6,4 ZZO 2,4 1017,5 94 -
02:39 -0,6 -1,4 18,5 Zuiden 6,8 1017,5 94 -
02:44 -0,6 -1,3 14,8 ZZW 2,3 1017,5 95 -
02:49 -0,6 -1,3 5,6 Zuiden 4,2 1017,5 95 -
02:54 -0,6 -1,3 7,4 ZZW 3,9 1017,5 95 -
02:59 -0,6 -1,3 5,6 OZO 1,8 1017,4 95 -
03:04 -0,5 -1,2 7,4 Zuiden 3,4 1017,4 95 -
03:09 -0,5 -1,2 11,1 Zuiden 2,9 1017,4 95 -
03:14 -0,6 -1,3 5,6 NO 1,9 1017,3 95 -
03:19 -0,6 -1,3 7,4 ZZO 3,5 1017,4 95 -
03:24 -0,7 -1,4 5,6 ZZO 3,4 1017,4 95 -
03:29 -0,8 -1,5 5,6 WZW 4,7 1017,4 95 -
03:34 -0,9 -1,6 13,0 OZO 5,8 1017,4 95 -
03:39 -0,9 -1,7 5,6 ZZW 1,6 1017,3 95 -
03:44 -1,0 -1,7 7,4 Zuiden 2,9 1017,3 95 -
03:49 -1,1 -1,8 5,6 ZO 4,2 1017,4 95 -
03:54 -1,1 -1,8 7,4 OZO 1,8 1017,3 95 -
03:59 -1,1 -1,8 5,6 ZO 2,6 1017,2 95 -
04:04 -1,0 -1,7 9,3 Oosten 2,9 1017,1 95 -
04:09 -1,0 -1,7 9,3 ZO 4,2 1017,1 95 -
04:14 -0,9 -1,7 6,4 ZZW 3,5 1017,1 95 -
04:19 -0,9 -1,7 5,6 NW 1,8 1017,1 95 -
04:24 -0,9 -1,6 9,3 ZO 4,3 1017,1 95 -
04:29 -0,9 -1,7 5,6 Zuiden 0,8 1017,0 95 -
04:34 -0,9 -1,6 7,4 Oosten 3,1 1017,0 95 -
04:39 -0,8 -1,6 3,7 Zuiden 1,4 1017,0 95 -
04:44 -0,8 -1,6 14,8 ONO 4,3 1017,0 95 -
04:49 -0,8 -1,6 3,7 Zuiden 2,7 1017,0 95 -
04:54 -0,8 -1,6 5,6 ZZW 4,5 1017,0 95 -
04:59 -0,8 -1,6 5,6 ZZO 3,2 1016,8 95 -
05:04 -0,8 -1,6 7,4 ONO 2,6 1016,7 95 -
05:09 -0,8 -1,5 5,6 Oosten 1,6 1016,7 95 -
05:14 -0,8 -1,5 5,6 ZO 2,3 1016,7 95 -
05:19 -0,8 -1,5 5,6 Oosten 6,6 1016,6 95 -
05:24 -0,8 -1,5 11,1 Oosten 4,5 1016,6 95 -
05:29 -0,8 -1,6 11,1 ZZW 3,1 1016,5 95 -
05:34 -0,8 -1,6 3,7 NO 2,7 1016,5 95 -
05:39 -0,8 -1,5 5,6 Oosten 3,2 1016,5 95 -
05:44 -0,8 -1,5 5,6 OZO 2,6 1016,5 95 -
05:49 -0,8 -1,5 3,7 WNW 2,6 1016,5 95 -
05:54 -0,8 -1,6 5,6 Oosten 3,7 1016,5 95 -
05:59 -0,8 -1,6 7,4 Oosten 3,1 1016,6 95 -
06:04 -0,9 -1,6 5,6 ZO 1,0 1016,5 95 -
06:09 -0,9 -1,6 9,3 ZZO 5,1 1016,5 95 -
06:14 -0,9 -1,7 5,6 NO 1,6 1016,5 95 -
06:19 -0,9 -1,7 4,8 Oosten 1,3 1016,4 95 -
06:24 -0,9 -1,7 3,2 OZO 3,4 1016,4 95 -
06:29 -1,0 -1,7 5,6 Oosten 1,8 1016,4 95 -
06:34 -1,0 -1,7 5,6 NO 1,8 1016,3 95 -
06:39 -1,1 -1,8 5,6 NO 3,2 1016,3 95 -
06:44 -1,1 -1,8 5,6 ZO 3,2 1016,3 95 -
06:49 -1,1 -1,8 3,7 ZO 2,6 1016,3 95 -
06:54 -1,1 -1,8 7,4 OZO 3,5 1016,4 95 -
06:59 -1,2 -1,9 5,6 ZZW 0,6 1016,3 95 -
07:04 -1,2 -1,9 5,6 ZO 1,1 1016,4 95 -
07:09 -1,2 -1,9 5,6 OZO 2,4 1016,4 95 -
07:14 -1,2 -1,9 5,6 Oosten 2,1 1016,5 95 -
07:19 -1,2 -1,9 1,9 OZO   1016,4 95 -
07:24 -1,2 -1,9 3,7 OZO 1,1 1016,5 95 -
07:29 -1,2 -1,9 3,7 OZO   1016,3 95 -
07:34 -1,3 -2,0 3,2 Oosten 3,2 1016,4 95 -
07:39 -1,3 -2,0 1,9 Oosten 0,2 1016,4 95 -
07:44 -1,3 -2,1 1,9 Oosten 0,2 1016,3 95 -
07:49 -1,4 -2,1 1,9 Oosten 1,0 1016,4 95 -
07:54 -1,4 -2,2   Kalm   1016,3 95 -
07:59 -1,4 -2,2   Kalm   1016,3 95 -
08:04 -1,5 -2,2 5,6 OZO 1,6 1016,3 95 -
08:09 -1,6 -2,3 1,9 Oosten 1,3 1016,2 95 -
08:14 -1,6 -2,3 5,6 Oosten 3,1 1016,1 95 -
08:19 -1,6 -2,3 5,6 ONO 1,8 1016,1 95 -
08:24 -1,7 -2,4 3,7 Oosten 1,8 1016,0 95 -
08:29 -1,7 -2,4 5,6 Oosten 2,7 1016,1 95 -
08:34 -1,8 -2,6 5,6 Oosten 2,7 1016,1 95 -
08:39 -1,9 -2,6 3,7 Oosten 1,8 1016,2 95 -
08:44 -2,0 -2,7 3,7 Oosten 2,1 1016,1 95 -
08:49 -2,1 -2,7 3,7 Oosten 1,8 1016,1 95 -
08:54 -2,1 -2,7 3,7 Oosten 1,9 1016,1 95 -
08:59 -2,1 -2,8 5,6 Oosten 1,6 1016,2 95 -
09:04 -2,1 -2,8 1,9 Oosten 1,1 1016,2 95 -
09:09 -2,1 -2,8 1,9 Oosten 1,3 1016,2 95 -
09:14 -2,1 -2,8 3,7 Oosten 1,0 1016,2 95 -
09:19 -2,2 -2,8 1,9 Oosten 1,9 1016,2 95 -
09:24 -2,2 -2,8 3,2 Oosten 1,6 1016,2 95 -
09:29 -2,2 -2,8 1,9 Oosten 1,3 1016,1 95 -
Dagelijkse Samenvatting Zaterdag 19 januari 2019
Tijd Temp. ( °C ) Dew pt. ( °C ) Wind ( km/h ) van Windvlaag ( km/h ) Luchtdruk ( hPa ) Humid.( % ) Rainrate ( cm )
Hoog-0,5 -1,2 18,5 Oosten ( 147/720 ) 8,5 1018,2 95 -
Gemiddeld-1,1 -1,8 6,3 Oosten #32/114 2,9 1017,0 95 -
Laag-2,2 -2,8 -   0,0 1016,0 92 -
Dagelijkse Tabular details for Zaterdag 19 januari 2019
Tijd Temp. ( °C ) Dew pt. ( °C ) Wind ( km/h ) van Windvlaag ( km/h ) Luchtdruk ( hPa ) Humid.( % ) Rainrate ( cm )
00:04 -1,0 -2,1 7,4 ZO 4,3 1018,2 92 -
00:09 -1,1 -2,2 5,6 WZW 1,6 1018,1 92 -
00:14 -1,1 -2,2 5,6 ZO 2,4 1018,2 92 -
00:19 -1,1 -2,2 5,6 ZZW 1,6 1018,1 92 -
00:24 -1,0 -2,1 5,6 Zuiden 2,9 1018,1 92 -
00:29 -1,0 -2,0 7,4 ZO 1,4 1018,1 93 -
00:34 -1,0 -2,0 11,3 ZZO 4,2 1018,1 93 -
00:39 -1,0 -2,0 7,4 ZO 4,0 1018,0 93 -
00:44 -1,0 -2,0 9,3 Zuiden 5,3 1018,0 93 -
00:49 -1,0 -2,0 11,1 ZO 4,3 1018,0 93 -
00:54 -1,0 -2,0 7,4 ZZO 4,5 1018,0 93 -
00:59 -1,0 -1,8 6,4 Zuiden 2,4 1018,0 94 -
01:04 -0,9 -1,9 11,1 ZO 6,3 1017,9 93 -
01:09 -0,9 -1,8 11,1 ZZO 3,7 1017,9 94 -
01:14 -0,9 -1,7 11,1 ZW 3,4 1017,9 94 -
01:19 -0,8 -1,7 5,6 ZW 2,3 1017,8 94 -
01:24 -0,8 -1,7 7,4 Oosten 8,5 1017,8 94 -
01:29 -0,8 -1,7 9,3 ZZW 3,4 1017,8 94 -
01:34 -0,8 -1,6 11,1 ZO 6,0 1017,8 94 -
01:39 -0,8 -1,6 11,1 ZW 6,4 1017,7 94 -
01:44 -0,7 -1,6 5,6 ZZW 2,4 1017,7 94 -
01:49 -0,7 -1,6 5,6 ZZW 4,3 1017,7 94 -
01:54 -0,7 -1,6 7,4 ZZW 3,2 1017,7 94 -
01:59 -0,7 -1,6 11,1 Zuiden 6,6 1017,7 94 -
02:04 -0,7 -1,6 5,6 ZZO 2,4 1017,7 94 -
02:09 -0,7 -1,6 5,6 ZZO 2,7 1017,6 94 -
02:14 -0,7 -1,5 5,6 Zuiden 5,1 1017,6 94 -
02:19 -0,7 -1,5 5,6 Zuiden 6,3 1017,6 94 -
02:24 -0,7 -1,5 13,0 Zuiden 5,3 1017,6 94 -
02:29 -0,7 -1,5 5,6 ZW 3,5 1017,5 94 -
02:34 -0,7 -1,5 6,4 ZZO 2,4 1017,5 94 -
02:39 -0,6 -1,4 18,5 Zuiden 6,8 1017,5 94 -
02:44 -0,6 -1,3 14,8 ZZW 2,3 1017,5 95 -
02:49 -0,6 -1,3 5,6 Zuiden 4,2 1017,5 95 -
02:54 -0,6 -1,3 7,4 ZZW 3,9 1017,5 95 -
02:59 -0,6 -1,3 5,6 OZO 1,8 1017,4 95 -
03:04 -0,5 -1,2 7,4 Zuiden 3,4 1017,4 95 -
03:09 -0,5 -1,2 11,1 Zuiden 2,9 1017,4 95 -
03:14 -0,6 -1,3 5,6 NO 1,9 1017,3 95 -
03:19 -0,6 -1,3 7,4 ZZO 3,5 1017,4 95 -
03:24 -0,7 -1,4 5,6 ZZO 3,4 1017,4 95 -
03:29 -0,8 -1,5 5,6 WZW 4,7 1017,4 95 -
03:34 -0,9 -1,6 13,0 OZO 5,8 1017,4 95 -
03:39 -0,9 -1,7 5,6 ZZW 1,6 1017,3 95 -
03:44 -1,0 -1,7 7,4 Zuiden 2,9 1017,3 95 -
03:49 -1,1 -1,8 5,6 ZO 4,2 1017,4 95 -
03:54 -1,1 -1,8 7,4 OZO 1,8 1017,3 95 -
03:59 -1,1 -1,8 5,6 ZO 2,6 1017,2 95 -
04:04 -1,0 -1,7 9,3 Oosten 2,9 1017,1 95 -
04:09 -1,0 -1,7 9,3 ZO 4,2 1017,1 95 -
04:14 -0,9 -1,7 6,4 ZZW 3,5 1017,1 95 -
04:19 -0,9 -1,7 5,6 NW 1,8 1017,1 95 -
04:24 -0,9 -1,6 9,3 ZO 4,3 1017,1 95 -
04:29 -0,9 -1,7 5,6 Zuiden 0,8 1017,0 95 -
04:34 -0,9 -1,6 7,4 Oosten 3,1 1017,0 95 -
04:39 -0,8 -1,6 3,7 Zuiden 1,4 1017,0 95 -
04:44 -0,8 -1,6 14,8 ONO 4,3 1017,0 95 -
04:49 -0,8 -1,6 3,7 Zuiden 2,7 1017,0 95 -
04:54 -0,8 -1,6 5,6 ZZW 4,5 1017,0 95 -
04:59 -0,8 -1,6 5,6 ZZO 3,2 1016,8 95 -
05:04 -0,8 -1,6 7,4 ONO 2,6 1016,7 95 -
05:09 -0,8 -1,5 5,6 Oosten 1,6 1016,7 95 -
05:14 -0,8 -1,5 5,6 ZO 2,3 1016,7 95 -
05:19 -0,8 -1,5 5,6 Oosten 6,6 1016,6 95 -
05:24 -0,8 -1,5 11,1 Oosten 4,5 1016,6 95 -
05:29 -0,8 -1,6 11,1 ZZW 3,1 1016,5 95 -
05:34 -0,8 -1,6 3,7 NO 2,7 1016,5 95 -
05:39 -0,8 -1,5 5,6 Oosten 3,2 1016,5 95 -
05:44 -0,8 -1,5 5,6 OZO 2,6 1016,5 95 -
05:49 -0,8 -1,5 3,7 WNW 2,6 1016,5 95 -
05:54 -0,8 -1,6 5,6 Oosten 3,7 1016,5 95 -
05:59 -0,8 -1,6 7,4 Oosten 3,1 1016,6 95 -
06:04 -0,9 -1,6 5,6 ZO 1,0 1016,5 95 -
06:09 -0,9 -1,6 9,3 ZZO 5,1 1016,5 95 -
06:14 -0,9 -1,7 5,6 NO 1,6 1016,5 95 -
06:19 -0,9 -1,7 4,8 Oosten 1,3 1016,4 95 -
06:24 -0,9 -1,7 3,2 OZO 3,4 1016,4 95 -
06:29 -1,0 -1,7 5,6 Oosten 1,8 1016,4 95 -
06:34 -1,0 -1,7 5,6 NO 1,8 1016,3 95 -
06:39 -1,1 -1,8 5,6 NO 3,2 1016,3 95 -
06:44 -1,1 -1,8 5,6 ZO 3,2 1016,3 95 -
06:49 -1,1 -1,8 3,7 ZO 2,6 1016,3 95 -
06:54 -1,1 -1,8 7,4 OZO 3,5 1016,4 95 -
06:59 -1,2 -1,9 5,6 ZZW 0,6 1016,3 95 -
07:04 -1,2 -1,9 5,6 ZO 1,1 1016,4 95 -
07:09 -1,2 -1,9 5,6 OZO 2,4 1016,4 95 -
07:14 -1,2 -1,9 5,6 Oosten 2,1 1016,5 95 -
07:19 -1,2 -1,9 1,9 OZO   1016,4 95 -
07:24 -1,2 -1,9 3,7 OZO 1,1 1016,5 95 -
07:29 -1,2 -1,9 3,7 OZO   1016,3 95 -
07:34 -1,3 -2,0 3,2 Oosten 3,2 1016,4 95 -
07:39 -1,3 -2,0 1,9 Oosten 0,2 1016,4 95 -
07:44 -1,3 -2,1 1,9 Oosten 0,2 1016,3 95 -
07:49 -1,4 -2,1 1,9 Oosten 1,0 1016,4 95 -
07:54 -1,4 -2,2   Kalm   1016,3 95 -
07:59 -1,4 -2,2   Kalm   1016,3 95 -
08:04 -1,5 -2,2 5,6 OZO 1,6 1016,3 95 -
08:09 -1,6 -2,3 1,9 Oosten 1,3 1016,2 95 -
08:14 -1,6 -2,3 5,6 Oosten 3,1 1016,1 95 -
08:19 -1,6 -2,3 5,6 ONO 1,8 1016,1 95 -
08:24 -1,7 -2,4 3,7 Oosten 1,8 1016,0 95 -
08:29 -1,7 -2,4 5,6 Oosten 2,7 1016,1 95 -
08:34 -1,8 -2,6 5,6 Oosten 2,7 1016,1 95 -
08:39 -1,9 -2,6 3,7 Oosten 1,8 1016,2 95 -
08:44 -2,0 -2,7 3,7 Oosten 2,1 1016,1 95 -
08:49 -2,1 -2,7 3,7 Oosten 1,8 1016,1 95 -
08:54 -2,1 -2,7 3,7 Oosten 1,9 1016,1 95 -
08:59 -2,1 -2,8 5,6 Oosten 1,6 1016,2 95 -
09:04 -2,1 -2,8 1,9 Oosten 1,1 1016,2 95 -
09:09 -2,1 -2,8 1,9 Oosten 1,3 1016,2 95 -
09:14 -2,1 -2,8 3,7 Oosten 1,0 1016,2 95 -
09:19 -2,2 -2,8 1,9 Oosten 1,9 1016,2 95 -
09:24 -2,2 -2,8 3,2 Oosten 1,6 1016,2 95 -
09:29 -2,2 -2,8 1,9 Oosten 1,3 1016,1 95 -

Download your copy of this data-set  here

Our weather-data as stored at Weather Underground. Script ontwikkeld door Jim McMurry. Aangepast voor de template door Leuven-Template.eu

U vindt ons ook hier:

Het Weer Aktueel

European Weather Network

Weather Underground

Benelux Weer Netwerk

Citizen Weather Observer Program (CWOP)

Apparatuur in gebruik:

Weerstation
Davis VP2

Weerprogramma
Weather Display

Weercomputer
My Computer

Webleverancier
WeservIT

Davis VP2

Weather Display

My Computer

WeservIT